Tolley, ND (58787)

3:57 PM CDT on August 21, 2014 (GMT -0500)
East End Behind Tesoro | Change Station
CLOSE
Current Station
Personal Weather Station
Location: Mohall, ND
Elevation: 1631 ft
Nearby Weather Stations

Elev 1631 ft 48.77 °N, 101.50 °W | Updated 1 second ago

Scattered Clouds
Scattered Clouds
75.9 °F
Feels Like 77 °F
N
14.4
Wind Variable Wind from NNW
Gusts 16.1 mph

Today
High -- | Low -- °F
--% Chance of Precip.
Yesterday
High -- | Low -- °F
Precip. -- in
6:48 AM 8:51 PM
Waning Crescent, 12% visible
Pressure 29.87 in
Visibility 8.0 miles
Clouds Scattered Clouds 2500 ft
Heat Index 77 °F
Dew Point 66 °F
Humidity 72%
Rainfall 0.04 in
Snow Depth Not available.
UV 2.5 out of 12
Pollen 6.50 out of 12
Air Quality Not available.
Flu Activity Not available.
METAR KMIB 211958Z AUTO 33012KT 8SM SCT025 23/17 A2987 RMK AO2 SLP115 T02340174 $

More Conditions Fewer Conditions

Pressure 29.87 in
Visibility 8.0 miles
Clouds Scattered Clouds 2500 ft
Heat Index 77 °F
Dew Point 66 °F
Humidity 72%
Rainfall 0.04 in
Snow Depth Not available.
UV 2.5 out of 12
Pollen 6.50 out of 12
Air Quality Not available.
Flu Activity Not available.
METAR KMIB 211958Z AUTO 33012KT 8SM SCT025 23/17 A2987 RMK AO2 SLP115 T02340174 $

More Conditions Fewer Conditions

10-Day Weather Forecast

Almanac

Astronomy

Aug. 21, 2014 Rise Set
Actual Time 6:48 AM CDT 8:51 PM CDT
Civil Twilight 6:14 AM CDT 9:25 PM CDT
Nautical Twilight 5:32 AM CDT 10:07 PM CDT
Astronomical Twilight 4:44 AM CDT 10:54 PM CDT
Moon 3:12 AM CDT 6:28 PM CDT
Length of Visible Light 15h 10m
Length of Day
14h 02m
Tomorrow will be 3m 20s shorter.
Waning Crescent, 12% of the Moon is Illuminated
Today
Waning Crescent
Aug 25
New
Sep 2
First Quarter
Sep 8
Full
Sep 15
Last Quarter

Today's Extremes

State Highs State Lows

Community

WunderPhotos

Upload Photos

1,746,017 photos uploaded!

WunderBlogs® & News

Nearby

Snow Depth

Station Depth Elevation
No new snow has been reported.

Earthquake Activity

City Distance Mag. Time & Date
No recent earthquake activity has been reported nearby.
Minimum magnitude displayed is 2.5.

Coastal Water Temperatures

Place Temperature
No Stations Reporting

Nearby Weather Stations